Terminal Aerodrome Forecast
Issued by NWS

Home | Current Version | Previous Version | Text Only | Print | Product List | Glossary On
Versions: 1 2 3 4 5 6 7 8 9 10 11 12
000
FTUS46 KMTR 230528
TAFMRY
TAF
KMRY 230528Z 2306/2406 26014G21KT P6SM SCT040
     FM230900 25011G18KT P6SM SCT040
     FM231500 24006KT P6SM SKC
     FM231800 30010KT P6SM SKC
     FM240300 25005KT P6SM SKC=

USA.gov is the U.S. government's official web portal to all federal, state and local government web resources and services.